Time;durP1;ratioP1;P1;durP2;ratioP2;P2;SDS_P1;SDS_P2;PMS_P1;PMS_P2;Temp;Humidity;BMP_temperature;BMP_pressure;BME280_temperature;BME280_humidity;BME280_pressure;Samples;Min_cycle;Max_cycle;Signal;HPM_P1;HPM_P2
2023/11/10 00:00:24;;;;;;;8.35;2.20;;;;;;;6.24;100.00;99511.53;6075826;19;20011;-71
2023/11/10 00:02:30;;;;;;;4.10;2.40;;;;;;;6.15;100.00;99512.81;6075717;19;20010;-71
2023/11/10 00:04:38;;;;;;;4.75;2.53;;;;;;;6.11;100.00;99525.13;6074129;19;20471;-72
2023/11/10 00:06:43;;;;;;;5.57;1.88;;;;;;;6.10;100.00;99515.59;6074052;19;20017;-72
2023/11/10 00:08:48;;;;;;;3.50;1.90;;;;;;;6.20;100.00;99515.22;6074146;19;20007;-72
2023/11/10 00:10:53;;;;;;;3.80;1.70;;;;;;;6.19;100.00;99522.19;6076565;19;20007;-72
2023/11/10 00:13:01;;;;;;;11.02;2.55;;;;;;;6.23;100.00;99528.13;6075127;19;20038;-71
2023/11/10 00:15:08;;;;;;;4.05;1.70;;;;;;;6.26;100.00;99520.16;6076139;19;20010;-71
2023/11/10 00:17:11;;;;;;;7.32;1.63;;;;;;;6.21;100.00;99519.50;6074979;19;20013;-72
2023/11/10 00:19:16;;;;;;;6.55;2.25;;;;;;;6.22;100.00;99514.25;6078034;19;20010;-72
2023/11/10 00:21:23;;;;;;;3.75;1.73;;;;;;;6.19;100.00;99521.31;6075761;19;20455;-72
2023/11/10 00:23:28;;;;;;;2.35;1.70;;;;;;;6.18;100.00;99517.88;6077305;19;20507;-72
2023/11/10 00:25:36;;;;;;;6.28;2.00;;;;;;;6.17;100.00;99516.19;6079262;19;20011;-71
2023/11/10 00:27:41;;;;;;;1.50;1.40;;;;;;;6.15;100.00;99512.81;6078410;19;20006;-73
2023/11/10 00:29:48;;;;;;;2.85;2.08;;;;;;;6.22;100.00;99514.25;6077464;19;20041;-73
2023/11/10 00:31:51;;;;;;;3.58;1.88;;;;;;;6.22;100.00;99503.81;6079875;19;20010;-72
2023/11/10 00:33:57;;;;;;;8.15;2.33;;;;;;;6.21;100.00;99509.06;6075730;19;20487;-71
2023/11/10 00:36:02;;;;;;;4.55;1.70;;;;;;;6.21;100.00;99506.47;6080224;19;20993;-73
2023/11/10 00:38:08;;;;;;;6.25;1.70;;;;;;;6.18;100.00;99494.41;6080763;19;20030;-72
2023/11/10 00:40:14;;;;;;;3.88;2.42;;;;;;;6.21;100.00;99493.41;6076802;19;20447;-72
2023/11/10 00:42:19;;;;;;;3.60;1.80;;;;;;;6.23;100.00;99496.81;6078358;19;20002;-73
2023/11/10 00:44:24;;;;;;;3.45;2.45;;;;;;;6.26;100.00;99494.06;6079344;19;20006;-72
2023/11/10 00:46:32;;;;;;;6.47;2.03;;;;;;;6.26;100.00;99494.06;6078802;19;20395;-72
2023/11/10 00:48:38;;;;;;;5.35;2.67;;;;;;;6.26;100.00;99494.91;6078643;19;20006;-71
2023/11/10 00:50:43;;;;;;;5.97;2.33;;;;;;;6.26;100.00;99499.28;6078448;19;20010;-73
2023/11/10 00:52:45;;;;;;;3.58;2.13;;;;;;;6.28;100.00;99489.63;6076984;19;20475;-72
2023/11/10 00:54:50;;;;;;;;;;;;;;;6.29;100.00;99492.19;6080790;19;20263;-72
2023/11/10 00:56:55;;;;;;;3.47;2.22;;;;;;;6.37;100.00;99484.00;6079943;19;19907;-73
2023/11/10 00:58:58;;;;;;;2.38;1.80;;;;;;;6.34;100.00;99481.53;6071063;19;20029;-72
2023/11/10 01:01:04;;;;;;;5.53;2.40;;;;;;;6.31;100.00;99492.09;6076833;19;20017;-71
2023/11/10 01:03:11;;;;;;;5.80;2.13;;;;;;;6.32;100.00;99489.44;6078429;19;20447;-70
2023/11/10 01:05:19;;;;;;;3.67;1.77;;;;;;;6.38;100.00;99481.31;6078970;19;20204;-71
2023/11/10 01:07:24;;;;;;;3.90;2.00;;;;;;;6.37;100.00;99489.22;6079797;19;20015;-71
2023/11/10 01:09:29;;;;;;;7.63;2.60;;;;;;;6.37;100.00;99484.00;6078722;19;20006;-71
2023/11/10 01:11:38;;;;;;;2.78;1.85;;;;;;;6.40;100.00;99481.28;6080659;19;20555;-71
2023/11/10 01:13:43;;;;;;;6.22;2.75;;;;;;;6.45;100.00;99478.44;6079066;19;20011;-71
2023/11/10 01:15:48;;;;;;;3.17;1.67;;;;;;;6.42;100.00;99483.78;6076939;19;20323;-70
2023/11/10 01:17:54;;;;;;;6.70;2.55;;;;;;;6.41;100.00;99474.28;6078898;19;20423;-71
2023/11/10 01:20:02;;;;;;;5.30;2.28;;;;;;;6.44;100.00;99469.75;6079087;19;20029;-71
2023/11/10 01:22:07;;;;;;;5.68;2.00;;;;;;;6.37;100.00;99458.78;6082541;19;20009;-72
2023/11/10 01:24:12;;;;;;;4.43;2.38;;;;;;;6.44;100.00;99467.16;6080980;19;19999;-71
2023/11/10 01:26:18;;;;;;;7.22;2.90;;;;;;;6.44;100.00;99450.66;6078066;19;20010;-72
2023/11/10 01:28:23;;;;;;;4.30;2.72;;;;;;;6.51;100.00;99463.34;6078321;19;20025;-72
2023/11/10 01:30:28;;;;;;;6.72;2.75;;;;;;;6.53;100.00;99461.53;6078122;19;20006;-71
2023/11/10 01:32:31;;;;;;;7.15;2.80;;;;;;;6.52;100.00;99464.19;6079914;19;20431;-71
2023/11/10 01:34:36;;;;;;;6.72;2.55;;;;;;;6.47;100.00;99474.84;6079256;19;20093;-71
2023/11/10 01:36:44;;;;;;;3.78;2.55;;;;;;;6.51;100.00;99455.53;6079958;19;20003;-71
2023/11/10 01:38:51;;;;;;;11.45;3.08;;;;;;;6.51;100.00;99462.50;6078000;19;20023;-71
2023/11/10 01:40:56;;;;;;;7.38;2.72;;;;;;;6.46;100.00;99462.72;6075926;19;19998;-73
2023/11/10 01:43:01;;;;;;;7.63;2.90;;;;;;;6.42;100.00;99460.31;6069001;19;20014;-71
2023/11/10 01:45:07;;;;;;;4.20;2.50;;;;;;;6.44;100.00;99451.50;6074592;19;20013;-72
2023/11/10 01:47:13;;;;;;;10.18;2.50;;;;;;;6.41;100.00;99451.63;6075172;19;20029;-72
2023/11/10 01:49:21;;;;;;;4.75;2.13;;;;;;;6.36;100.00;99461.44;6075909;19;20038;-71
2023/11/10 01:51:29;;;;;;;6.38;2.42;;;;;;;6.40;100.00;99463.00;6073796;19;21272;-71
2023/11/10 01:53:36;;;;;;;4.57;2.13;;;;;;;6.39;100.00;99456.06;6072600;19;20019;-71
2023/11/10 01:55:41;;;;;;;4.07;1.85;;;;;;;6.42;100.00;99458.53;6076159;19;20019;-71
2023/11/10 01:57:48;;;;;;;4.30;2.15;;;;;;;6.36;100.00;99457.06;6075513;19;20011;-72
2023/11/10 01:59:54;;;;;;;3.67;2.13;;;;;;;6.44;100.00;99455.88;6076277;19;19999;-72
2023/11/10 02:01:59;;;;;;;3.22;1.80;;;;;;;6.40;100.00;99455.19;6075762;19;20621;-73
2023/11/10 02:04:06;;;;;;;3.90;1.70;;;;;;;6.44;100.00;99450.66;6075970;19;20006;-72
2023/11/10 02:06:11;;;;;;;5.03;1.92;;;;;;;6.45;100.00;99449.72;6073963;19;20626;-72
2023/11/10 02:08:16;;;;;;;5.15;1.70;;;;;;;6.43;100.00;99449.81;6077935;19;20035;-73
2023/11/10 02:10:21;;;;;;;3.13;2.17;;;;;;;6.44;100.00;99446.28;6078587;19;20636;-74
2023/11/10 02:12:26;;;;;;;2.05;1.60;;;;;;;6.42;100.00;99449.88;6078130;19;20003;-72
2023/11/10 02:14:35;;;;;;;4.85;2.03;;;;;;;6.44;100.00;99453.25;6081378;19;20557;-70
2023/11/10 02:16:38;;;;;;;4.82;1.83;;;;;;;6.46;100.00;99448.81;6077636;19;20006;-69
2023/11/10 02:18:44;;;;;;;6.57;3.08;;;;;;;6.42;100.00;99449.88;6080859;19;20029;-72
2023/11/10 02:20:49;;;;;;;5.05;2.53;;;;;;;6.40;100.00;99457.78;6075972;19;21117;-70
2023/11/10 02:22:54;;;;;;;8.75;3.08;;;;;;;6.37;100.00;99450.94;6082356;19;20010;-72
2023/11/10 02:24:58;;;;;;;4.57;2.40;;;;;;;6.32;100.00;99454.69;6083158;19;20349;-72
2023/11/10 02:27:06;;;;;;;6.40;2.10;;;;;;;6.30;100.00;99449.53;6079294;19;20344;-71
2023/11/10 02:29:11;;;;;;;13.02;3.85;;;;;;;6.36;100.00;99451.84;6080311;19;20363;-70
2023/11/10 02:31:16;;;;;;;6.07;3.08;;;;;;;6.40;100.00;99446.47;6077563;19;20003;-70
2023/11/10 02:33:21;;;;;;;6.68;2.33;;;;;;;6.43;100.00;99449.81;6080896;19;20435;-72
2023/11/10 02:35:26;;;;;;;5.70;2.50;;;;;;;6.40;100.00;99449.97;6081208;19;20043;-73
2023/11/10 02:37:31;;;;;;;7.15;3.00;;;;;;;6.41;100.00;99456.03;6082955;19;20034;-72
2023/11/10 02:39:36;;;;;;;7.97;2.97;;;;;;;6.44;100.00;99450.66;6078567;19;20003;-72
2023/11/10 02:41:41;;;;;;;5.47;3.13;;;;;;;6.43;100.00;99455.03;6076042;19;20578;-73
2023/11/10 02:43:49;;;;;;;7.63;3.13;;;;;;;6.48;100.00;99458.28;6074732;19;20054;-71
2023/11/10 02:45:54;;;;;;;12.48;4.28;;;;;;;6.47;100.00;99461.78;6073626;19;20513;-71
2023/11/10 02:47:59;;;;;;;11.68;3.67;;;;;;;6.54;100.00;99459.75;6074806;19;20011;-71
2023/11/10 02:50:07;;;;;;;10.63;4.78;;;;;;;6.53;100.00;99460.66;6073837;19;20048;-72
2023/11/10 02:52:10;;;;;;;9.45;3.88;;;;;;;6.54;100.00;99458.00;6073150;19;20027;-71
2023/11/10 02:54:17;;;;;;;5.13;3.35;;;;;;;6.55;100.00;99462.28;6073853;19;20010;-71
2023/11/10 02:56:23;;;;;;;7.95;3.30;;;;;;;6.57;100.00;99463.06;6075058;19;20023;-71
2023/11/10 02:58:30;;;;;;;7.43;3.58;;;;;;;6.60;100.00;99465.53;6070860;19;20023;-70
2023/11/10 03:00:38;;;;;;;5.57;2.90;;;;;;;6.56;100.00;99461.38;6071107;19;20011;-70
2023/11/10 03:02:43;;;;;;;17.00;4.18;;;;;;;6.59;100.00;99466.44;6072073;19;20010;-72
2023/11/10 03:04:50;;;;;;;5.35;2.53;;;;;;;6.59;100.00;99455.19;6072335;19;20780;-72
2023/11/10 03:06:53;;;;;;;6.55;3.28;;;;;;;6.58;100.00;99454.34;6073550;19;20003;-73
2023/11/10 03:09:01;;;;;;;8.68;3.53;;;;;;;6.60;100.00;99464.69;6072852;19;20462;-71
2023/11/10 03:11:06;;;;;;;9.75;3.13;;;;;;;6.56;100.00;99461.38;6070460;19;20015;-71
2023/11/10 03:13:11;;;;;;;5.90;3.53;;;;;;;6.56;100.00;99460.53;6070826;19;20015;-71
2023/11/10 03:15:17;;;;;;;8.02;3.45;;;;;;;6.51;100.00;99468.56;6073125;19;20018;-72
2023/11/10 03:17:24;;;;;;;13.73;2.85;;;;;;;6.56;100.00;99457.94;6071792;19;20186;-73
2023/11/10 03:19:29;;;;;;;5.90;3.45;;;;;;;6.54;100.00;99455.38;6070617;19;20010;-74
2023/11/10 03:21:34;;;;;;;9.48;3.85;;;;;;;6.49;100.00;99461.72;6071182;19;20014;-72
2023/11/10 03:23:39;;;;;;;9.07;3.58;;;;;;;6.53;100.00;99458.91;6073360;19;20482;-72
2023/11/10 03:25:45;;;;;;;24.70;4.53;;;;;;;6.50;100.00;99452.97;6073174;19;20777;-72
2023/11/10 03:27:51;;;;;;;8.68;4.18;;;;;;;6.43;100.00;99448.97;6074577;19;20002;-72
2023/11/10 03:29:56;;;;;;;9.05;3.05;;;;;;;6.45;100.00;99458.44;6076009;19;20007;-72
2023/11/10 03:32:02;;;;;;;11.00;3.55;;;;;;;6.38;100.00;99446.56;6074757;19;20003;-71
2023/11/10 03:34:10;;;;;;;6.97;2.85;;;;;;;6.33;100.00;99452.00;6073692;19;20078;-71
2023/11/10 03:36:16;;;;;;;10.98;3.08;;;;;;;6.32;100.00;99449.47;6068805;19;20014;-71
2023/11/10 03:38:21;;;;;;;7.97;2.83;;;;;;;6.37;100.00;99442.25;6074826;19;20014;-71
2023/11/10 03:40:26;;;;;;;2.35;2.08;;;;;;;6.33;100.00;99454.59;6074768;19;20114;-71
2023/11/10 03:42:33;;;;;;;4.65;2.45;;;;;;;6.38;100.00;99457.84;6076097;19;20010;-71
2023/11/10 03:44:38;;;;;;;4.90;2.28;;;;;;;6.38;100.00;99460.47;6075076;19;20009;-72
2023/11/10 03:46:43;;;;;;;5.57;2.92;;;;;;;6.42;100.00;99453.31;6075505;19;20661;-73
2023/11/10 03:48:51;;;;;;;6.28;2.58;;;;;;;6.47;100.00;99451.34;6074719;19;20464;-73
2023/11/10 03:50:59;;;;;;;5.20;2.75;;;;;;;6.45;100.00;99454.94;6075071;19;20006;-72
2023/11/10 03:53:04;;;;;;;7.43;2.28;;;;;;;6.43;100.00;99455.03;6065397;19;21176;-72
2023/11/10 03:55:09;;;;;;;7.40;2.95;;;;;;;6.39;100.00;99450.84;6071772;19;20359;-71
2023/11/10 03:57:14;;;;;;;9.15;2.85;;;;;;;6.42;100.00;99452.47;6072635;19;20471;-72
2023/11/10 03:59:22;;;;;;;12.38;2.95;;;;;;;6.47;100.00;99460.94;6075001;19;20637;-73
2023/11/10 04:01:27;;;;;;;6.00;2.50;;;;;;;6.39;100.00;99458.69;6070299;19;20461;-73
2023/11/10 04:03:29;;;;;;;11.55;3.00;;;;;;;6.42;100.00;99462.91;6074900;19;20150;-73
2023/11/10 04:05:34;;;;;;;3.10;2.17;;;;;;;6.43;100.00;99447.22;6073506;19;20015;-72
2023/11/10 04:07:42;;;;;;;8.63;2.90;;;;;;;6.43;100.00;99449.81;6073617;19;20015;-71
2023/11/10 04:09:47;;;;;;;8.00;3.30;;;;;;;6.51;100.00;99457.28;6070834;19;20010;-71
2023/11/10 04:11:50;;;;;;;10.63;2.90;;;;;;;6.45;100.00;99458.44;6073604;19;20007;-72
2023/11/10 04:13:56;;;;;;;5.50;3.10;;;;;;;6.46;100.00;99467.09;6073172;19;20027;-71
2023/11/10 04:16:01;;;;;;;3.40;2.70;;;;;;;6.43;100.00;99470.69;6075757;19;20011;-71
2023/11/10 04:18:06;;;;;;;6.95;2.30;;;;;;;6.41;100.00;99467.28;6069922;19;20031;-73
2023/11/10 04:20:13;;;;;;;4.28;2.42;;;;;;;6.34;100.00;99471.09;6073987;19;20558;-73
2023/11/10 04:22:19;;;;;;;6.35;3.60;;;;;;;6.42;100.00;99462.91;6074742;19;20018;-72
2023/11/10 04:24:27;;;;;;;6.43;3.13;;;;;;;6.46;100.00;99465.31;6073023;19;20014;-73
2023/11/10 04:26:32;;;;;;;5.65;3.42;;;;;;;6.42;100.00;99474.19;6072013;19;20024;-72
2023/11/10 04:28:39;;;;;;;6.88;3.08;;;;;;;6.41;100.00;99479.50;6072419;19;20359;-74
2023/11/10 04:30:44;;;;;;;12.05;3.20;;;;;;;6.37;100.00;99474.44;6070956;19;20010;-72
2023/11/10 04:32:50;;;;;;;13.95;4.07;;;;;;;6.32;100.00;99471.19;6072919;19;20732;-73
2023/11/10 04:34:52;;;;;;;10.73;3.58;;;;;;;6.25;100.00;99467.16;6074248;19;20095;-73
2023/11/10 04:36:57;;;;;;;9.85;2.85;;;;;;;6.27;100.00;99467.09;6074120;19;20013;-72
2023/11/10 04:39:02;;;;;;;12.95;2.58;;;;;;;6.27;100.00;99469.69;6073882;19;20006;-73
2023/11/10 04:41:08;;;;;;;3.38;2.03;;;;;;;6.24;100.00;99475.03;6072410;19;20006;-73
2023/11/10 04:43:13;;;;;;;8.45;3.15;;;;;;;6.22;100.00;99463.84;6069472;19;20015;-72
2023/11/10 04:45:20;;;;;;;4.72;2.35;;;;;;;6.23;100.00;99462.91;6072648;19;20014;-73
2023/11/10 04:47:26;;;;;;;7.25;3.13;;;;;;;6.23;100.00;99458.53;6071674;19;20017;-74
2023/11/10 04:49:31;;;;;;;8.52;2.88;;;;;;;6.26;100.00;99454.94;6075286;19;20633;-73
2023/11/10 04:51:36;;;;;;;7.43;2.53;;;;;;;6.23;100.00;99455.09;6072271;19;20463;-72
2023/11/10 04:53:42;;;;;;;4.38;2.03;;;;;;;6.20;100.00;99463.88;6073811;19;20015;-74
2023/11/10 04:55:47;;;;;;;8.35;2.83;;;;;;;6.15;100.00;99465.84;6075211;19;20046;-73
2023/11/10 04:57:52;;;;;;;6.75;1.95;;;;;;;6.18;100.00;99470.94;6070360;19;20006;-73
2023/11/10 04:59:58;;;;;;;10.93;2.83;;;;;;;6.12;100.00;99461.63;6074893;19;20459;-72
2023/11/10 05:02:03;;;;;;;8.13;2.53;;;;;;;6.11;100.00;99467.75;6071493;19;20496;-71
2023/11/10 05:04:12;;;;;;;7.82;2.88;;;;;;;6.10;100.00;99463.44;6073941;19;20645;-72
2023/11/10 05:06:16;;;;;;;10.55;2.53;;;;;;;6.05;100.00;99460.19;6079744;19;20341;-72
2023/11/10 05:08:21;;;;;;;7.13;2.58;;;;;;;6.05;100.00;99462.78;6079931;19;20016;-72
2023/11/10 05:10:29;;;;;;;3.72;2.45;;;;;;;6.10;100.00;99462.59;6080960;19;20016;-72
2023/11/10 05:12:35;;;;;;;7.97;2.80;;;;;;;6.07;100.00;99460.13;6082443;19;20010;-71
2023/11/10 05:14:43;;;;;;;5.70;2.60;;;;;;;6.11;100.00;99474.75;6082298;19;20007;-71
2023/11/10 05:16:45;;;;;;;10.90;2.72;;;;;;;6.14;100.00;99465.00;6083560;19;20100;-72
2023/11/10 05:18:50;;;;;;;;;;;;;;;6.18;100.00;99470.94;6079493;19;20007;-72
2023/11/10 05:20:58;;;;;;;8.02;2.60;;;;;;;6.20;100.00;99465.66;6083113;19;20324;-71
2023/11/10 05:23:06;;;;;;;14.55;2.92;;;;;;;6.21;100.00;99467.34;6084492;19;20007;-71
2023/11/10 05:25:11;;;;;;;8.10;2.90;;;;;;;6.21;100.00;99460.34;6081790;19;20018;-71
2023/11/10 05:27:16;;;;;;;4.80;2.58;;;;;;;6.23;100.00;99461.13;6074316;19;20003;-70
2023/11/10 05:29:21;;;;;;;8.07;2.75;;;;;;;6.27;100.00;99464.47;6081442;19;20129;-71
2023/11/10 05:31:28;;;;;;;5.95;2.85;;;;;;;6.27;100.00;99474.91;6084062;19;20002;-74
2023/11/10 05:33:34;;;;;;;10.68;2.65;;;;;;;6.30;100.00;99462.56;6082803;19;20007;-73
2023/11/10 05:35:39;;;;;;;4.95;2.65;;;;;;;6.31;100.00;99460.78;6082833;19;20022;-73
2023/11/10 05:37:44;;;;;;;8.15;2.67;;;;;;;6.32;100.00;99472.94;6079193;19;20007;-73
2023/11/10 05:39:50;;;;;;;4.35;2.15;;;;;;;6.43;100.00;99469.84;6080815;19;20475;-73
2023/11/10 05:41:56;;;;;;;3.25;2.22;;;;;;;6.37;100.00;99458.78;6078987;19;20017;-74
2023/11/10 05:44:01;;;;;;;5.55;2.17;;;;;;;6.38;100.00;99462.22;6080995;19;20003;-73
2023/11/10 05:46:05;;;;;;;10.60;3.47;;;;;;;6.39;100.00;99461.28;6079877;19;20028;-74
2023/11/10 05:48:13;;;;;;;8.30;2.95;;;;;;;6.34;100.00;99460.66;6075175;19;20002;-73
2023/11/10 05:50:20;;;;;;;8.25;2.83;;;;;;;6.33;100.00;99451.16;6075942;19;20433;-74
2023/11/10 05:52:23;;;;;;;7.28;2.40;;;;;;;6.35;100.00;99460.59;6071427;19;20018;-73
2023/11/10 05:54:29;;;;;;;11.63;2.95;;;;;;;6.36;100.00;99451.00;6076235;19;20002;-73
2023/11/10 05:56:34;;;;;;;6.28;2.30;;;;;;;6.35;100.00;99462.38;6073794;19;20551;-73
2023/11/10 05:58:40;;;;;;;7.63;3.50;;;;;;;6.30;100.00;99454.75;6077437;19;20002;-73
2023/11/10 06:00:42;;;;;;;8.40;2.67;;;;;;;6.21;100.00;99457.75;6078956;19;20051;-74
2023/11/10 06:02:48;;;;;;;9.98;2.75;;;;;;;6.27;100.00;99459.25;6070899;19;20496;-74
2023/11/10 06:04:58;;;;;;;7.82;3.03;;;;;;;6.25;100.00;99455.88;6077971;19;20407;-73
2023/11/10 06:07:03;;;;;;;8.25;3.53;;;;;;;6.28;100.00;99461.78;6073912;19;20030;-73
2023/11/10 06:09:10;;;;;;;7.82;2.85;;;;;;;6.26;100.00;99468.81;6077403;19;20052;-72
2023/11/10 06:11:21;;;;;;;9.90;3.17;;;;;;;6.25;100.00;99467.16;6077326;19;20003;-72
2023/11/10 06:13:24;;;;;;;6.53;3.08;;;;;;;6.28;100.00;99473.97;5983773;19;2004484;-72
2023/11/10 06:15:29;;;;;;;9.32;2.67;;;;;;;6.27;100.00;99473.16;6076425;19;20417;-72
2023/11/10 06:17:34;;;;;;;5.80;2.90;;;;;;;6.27;100.00;99472.31;6075654;19;20751;-73
2023/11/10 06:19:40;;;;;;;7.03;2.97;;;;;;;6.27;100.00;99472.31;6075732;19;19999;-72
2023/11/10 06:21:49;;;;;;;11.95;2.92;;;;;;;6.33;100.00;99470.25;6077536;19;20024;-72
2023/11/10 06:23:54;;;;;;;6.03;2.50;;;;;;;6.41;100.00;99476.91;6076092;19;20010;-74
2023/11/10 06:25:59;;;;;;;15.75;2.70;;;;;;;6.41;100.00;99477.72;6073183;19;20006;-74
2023/11/10 06:28:05;;;;;;;7.03;2.05;;;;;;;6.36;100.00;99479.69;6075522;19;20015;-76
2023/11/10 06:30:09;;;;;;;6.22;3.15;;;;;;;6.40;100.00;99481.28;6077286;19;20582;-73
2023/11/10 06:32:15;;;;;;;5.15;2.33;;;;;;;6.41;100.00;99476.91;6078141;19;20306;-73
2023/11/10 06:34:21;;;;;;;9.85;2.50;;;;;;;6.43;100.00;99475.91;6078027;19;20006;-74
2023/11/10 06:36:26;;;;;;;6.68;2.38;;;;;;;6.45;100.00;99468.88;6076351;19;20463;-75
2023/11/10 06:38:35;;;;;;;13.40;2.85;;;;;;;6.42;100.00;99474.19;6077055;19;20011;-74
2023/11/10 06:40:40;;;;;;;6.03;2.20;;;;;;;6.45;100.00;99470.59;6078034;19;20003;-73
2023/11/10 06:42:45;;;;;;;6.80;2.58;;;;;;;6.45;100.00;99471.47;6076506;19;20003;-74
2023/11/10 06:44:50;;;;;;;7.75;2.55;;;;;;;6.52;100.00;99483.31;6072432;19;20007;-72
2023/11/10 06:46:57;;;;;;;4.97;2.70;;;;;;;6.49;100.00;99478.22;6077470;19;20006;-72
2023/11/10 06:49:05;;;;;;;5.85;2.67;;;;;;;6.54;100.00;99484.09;6075140;19;20356;-74
2023/11/10 06:51:10;;;;;;;6.55;2.38;;;;;;;6.57;100.00;99489.16;6075466;19;20010;-72
2023/11/10 06:53:15;;;;;;;10.40;3.28;;;;;;;6.58;100.00;99490.00;6053736;19;20007;-73
2023/11/10 06:55:23;;;;;;;7.72;3.22;;;;;;;6.60;100.00;99488.19;6079149;19;20003;-73
2023/11/10 06:57:28;;;;;;;9.32;3.38;;;;;;;6.57;100.00;99499.59;6077181;19;20042;-73
2023/11/10 06:59:34;;;;;;;9.77;2.85;;;;;;;6.58;100.00;99500.44;6075324;19;20006;-73
2023/11/10 07:01:37;;;;;;;5.88;2.90;;;;;;;6.63;100.00;99497.63;6078934;19;20003;-72
2023/11/10 07:03:43;;;;;;;8.35;3.80;;;;;;;6.57;100.00;99499.59;6071543;19;20038;-72
2023/11/10 07:05:51;;;;;;;6.95;2.95;;;;;;;6.62;100.00;99499.41;6076733;19;20039;-75
2023/11/10 07:07:57;;;;;;;6.65;2.85;;;;;;;6.57;100.00;99496.16;6076444;19;20097;-74
2023/11/10 07:09:59;;;;;;;10.32;4.07;;;;;;;6.54;100.00;99499.75;6078588;19;20520;-74
2023/11/10 07:12:08;;;;;;;7.05;3.70;;;;;;;6.55;100.00;99496.22;6076693;19;20014;-73
2023/11/10 07:14:13;;;;;;;13.95;3.88;;;;;;;6.52;100.00;99493.75;6077208;19;20167;-73
2023/11/10 07:16:20;;;;;;;10.13;3.30;;;;;;;6.51;100.00;99506.88;6075993;19;20018;-74
2023/11/10 07:18:24;;;;;;;7.65;3.47;;;;;;;6.48;100.00;99507.88;6076657;19;20007;-73
2023/11/10 07:20:30;;;;;;;11.10;3.92;;;;;;;6.53;100.00;99495.47;6075465;19;20011;-73
2023/11/10 07:22:35;;;;;;;10.05;4.05;;;;;;;6.52;100.00;99498.13;6075785;19;20015;-73
2023/11/10 07:24:40;;;;;;;8.98;3.33;;;;;;;6.54;100.00;99499.75;6074280;19;20997;-72
2023/11/10 07:26:45;;;;;;;13.07;4.18;;;;;;;6.60;100.00;99490.78;6074548;19;20010;-72
2023/11/10 07:28:53;;;;;;;13.23;4.15;;;;;;;6.53;100.00;99490.25;6075226;19;20010;-72
2023/11/10 07:31:00;;;;;;;9.32;3.80;;;;;;;6.53;100.00;99495.47;6075088;19;20009;-72
2023/11/10 07:33:05;;;;;;;9.27;4.13;;;;;;;6.61;100.00;99497.72;6077618;19;20037;-73
2023/11/10 07:35:21;;;;;;;12.73;4.32;;;;;;;6.58;100.00;99490.88;6071902;19;20006;-73
2023/11/10 07:37:34;;;;;;;10.90;4.10;;;;;;;6.60;100.00;99496.84;6076640;19;20021;-72
2023/11/10 07:39:42;;;;;;;10.18;3.42;;;;;;;6.68;100.00;99493.88;6074972;19;20013;-72
2023/11/10 07:41:47;;;;;;;13.45;3.92;;;;;;;6.72;100.00;99492.84;6064242;19;20504;-72
2023/11/10 07:43:55;;;;;;;9.50;3.90;;;;;;;6.73;100.00;99488.47;6067861;19;20042;-72
2023/11/10 07:46:04;;;;;;;10.23;3.10;;;;;;;6.77;100.00;99490.03;6064976;19;20104;-72
2023/11/10 07:48:09;;;;;;;9.50;3.40;;;;;;;6.76;100.00;99493.53;6067118;19;20027;-72
2023/11/10 07:50:18;;;;;;;12.13;3.85;;;;;;;6.80;100.00;99484.66;6069427;19;20003;-73
2023/11/10 07:52:24;;;;;;;4.65;2.75;;;;;;;6.86;100.00;99489.59;6064579;19;20820;-72
2023/11/10 07:54:29;;;;;;;6.63;3.35;;;;;;;6.91;100.00;99492.00;6066725;19;21034;-73
2023/11/10 07:56:34;;;;;;;10.82;3.47;;;;;;;6.96;100.00;99482.16;6070399;19;20007;-72
2023/11/10 07:58:39;;;;;;;11.57;4.25;;;;;;;7.01;100.00;99483.63;6066125;19;22495;-73
2023/11/10 08:00:47;;;;;;;17.13;3.90;;;;;;;7.06;100.00;99487.78;6068755;19;20003;-72
2023/11/10 08:02:52;;;;;;;11.80;3.80;;;;;;;7.04;100.00;99491.31;6071133;19;20010;-72
2023/11/10 08:04:58;;;;;;;10.55;3.67;;;;;;;7.11;100.00;99480.56;6069671;19;20031;-72
2023/11/10 08:07:04;;;;;;;7.85;3.53;;;;;;;7.13;100.00;99494.41;6071494;19;20031;-73
2023/11/10 08:09:11;;;;;;;10.63;3.55;;;;;;;7.12;100.00;99495.34;6073113;19;20010;-73
2023/11/10 08:11:17;;;;;;;12.68;3.83;;;;;;;7.04;100.00;99491.31;6074174;19;20010;-72
2023/11/10 08:13:22;;;;;;;11.75;4.18;;;;;;;6.96;100.00;99493.47;6073793;19;20018;-73
2023/11/10 08:15:27;;;;;;;11.20;4.20;;;;;;;6.95;100.00;99490.91;6076973;19;20027;-72
2023/11/10 08:17:35;;;;;;;12.52;3.45;;;;;;;6.94;100.00;99486.63;6070205;19;20085;-73
2023/11/10 08:19:41;;;;;;;9.88;3.65;;;;;;;6.95;100.00;99494.38;6072907;19;20070;-72
2023/11/10 08:21:46;;;;;;;6.32;2.80;;;;;;;6.90;100.00;99488.53;6075386;19;20011;-71
2023/11/10 08:23:51;;;;;;;9.23;2.83;;;;;;;6.87;100.00;99485.19;6067711;19;20051;-70
2023/11/10 08:25:56;;;;;;;5.75;2.65;;;;;;;6.88;100.00;99481.69;6072913;19;20015;-72
2023/11/10 08:28:05;;;;;;;7.32;2.75;;;;;;;6.84;100.00;99483.56;6073275;19;20712;-72
2023/11/10 08:30:11;;;;;;;11.20;3.08;;;;;;;6.85;100.00;99474.84;6070274;19;20093;-71
2023/11/10 08:32:17;;;;;;;6.90;2.55;;;;;;;6.91;100.00;99474.53;6069666;19;20076;-72
2023/11/10 08:34:25;;;;;;;9.25;3.15;;;;;;;6.83;100.00;99471.44;6068232;19;20006;-73
2023/11/10 08:36:32;;;;;;;15.75;2.92;;;;;;;6.83;100.00;99461.00;6070105;19;20031;-73
2023/11/10 08:38:35;;;;;;;6.03;2.08;;;;;;;6.86;100.00;99452.19;6070179;19;20012;-73
2023/11/10 08:40:40;;;;;;;;;;;;;;;6.85;100.00;99456.56;6075733;19;20011;-72
2023/11/10 08:42:48;;;;;;;3.50;1.80;;;;;;;6.87;100.00;99448.66;6076737;19;20525;-73
2023/11/10 08:44:54;;;;;;;7.63;2.13;;;;;;;6.90;100.00;99446.75;6070666;19;20574;-74
2023/11/10 08:46:59;;;;;;;10.00;2.97;;;;;;;6.96;100.00;99450.84;6070922;19;20082;-74
2023/11/10 08:49:04;;;;;;;7.05;2.33;;;;;;;7.00;100.00;99452.34;6074046;19;20006;-75
2023/11/10 08:51:13;;;;;;;9.90;3.20;;;;;;;7.11;100.00;99460.53;6069965;19;20005;-73
2023/11/10 08:53:19;;;;;;;5.72;2.47;;;;;;;7.10;100.00;99468.44;6064800;19;20029;-73
2023/11/10 08:55:24;;;;;;;4.82;2.95;;;;;;;7.08;100.00;99463.28;6073363;19;20695;-73
2023/11/10 08:57:26;;;;;;;8.38;2.63;;;;;;;7.14;100.00;99472.63;6073956;19;20006;-72
2023/11/10 08:59:32;;;;;;;4.35;2.33;;;;;;;7.20;100.00;99477.53;6072114;19;20031;-75
2023/11/10 09:01:37;;;;;;;8.93;2.80;;;;;;;7.16;100.00;99476.84;6073865;19;20015;-72
2023/11/10 09:03:43;;;;;;;12.48;3.25;;;;;;;7.17;100.00;99469.84;6075003;19;20042;-73
2023/11/10 09:05:49;;;;;;;9.90;3.40;;;;;;;7.16;100.00;99455.94;6073976;19;20006;-73
2023/11/10 09:07:56;;;;;;;11.27;3.60;;;;;;;7.19;100.00;99450.56;6073178;19;20023;-72
2023/11/10 09:10:01;;;;;;;7.07;3.05;;;;;;;7.23;100.00;99461.72;6075440;19;20023;-71
2023/11/10 09:12:08;;;;;;;6.60;3.28;;;;;;;7.26;100.00;99462.38;6073447;19;20634;-71
2023/11/10 09:14:13;;;;;;;5.78;3.50;;;;;;;7.24;100.00;99463.38;6074488;19;20014;-71
2023/11/10 09:16:19;;;;;;;10.88;4.00;;;;;;;7.29;100.00;99456.16;6075939;19;20702;-73
2023/11/10 09:18:24;;;;;;;10.65;4.10;;;;;;;7.36;100.00;99449.72;6077617;19;20014;-73
2023/11/10 09:20:30;;;;;;;9.65;4.28;;;;;;;7.32;100.00;99468.25;6074433;19;20367;-72
2023/11/10 09:22:38;;;;;;;7.10;3.38;;;;;;;7.30;100.00;99460.50;6075470;19;20007;-71
2023/11/10 09:24:47;;;;;;;7.53;4.47;;;;;;;7.26;100.00;99453.72;6065473;19;20003;-72
2023/11/10 09:26:52;;;;;;;8.32;4.35;;;;;;;7.28;100.00;99448.41;6071497;19;20467;-73
2023/11/10 09:28:58;;;;;;;9.20;3.72;;;;;;;7.28;100.00;99456.25;6075868;19;20010;-72
2023/11/10 09:31:03;;;;;;;7.53;3.33;;;;;;;7.27;100.00;99444.97;6075189;19;20003;-71
2023/11/10 09:33:08;;;;;;;7.25;3.13;;;;;;;7.28;100.00;99451.88;6074002;19;20006;-72
2023/11/10 09:35:16;;;;;;;11.02;4.15;;;;;;;7.25;100.00;99437.19;6074146;19;20010;-72
2023/11/10 09:37:23;;;;;;;8.60;3.60;;;;;;;7.29;100.00;99439.66;6072219;19;20010;-71
2023/11/10 09:39:28;;;;;;;7.78;4.20;;;;;;;7.21;100.00;99437.41;6072534;19;20013;-70
2023/11/10 09:41:40;;;;;;;9.38;3.65;;;;;;;7.23;100.00;99432.97;6073760;19;20038;-72
2023/11/10 09:43:47;;;;;;;11.30;4.38;;;;;;;7.27;100.00;99429.28;6072938;19;20668;-72
2023/11/10 09:45:54;;;;;;;11.98;3.85;;;;;;;7.26;100.00;99430.19;6074254;19;20037;-73
2023/11/10 09:48:01;;;;;;;10.88;5.15;;;;;;;7.24;100.00;99430.28;6073753;19;20047;-72
2023/11/10 09:50:08;;;;;;;15.13;4.45;;;;;;;7.34;100.00;99422.81;6071802;19;20581;-72